createdAt,value
2023-04-02T00:00:09.666Z,9.33
2023-04-02T00:02:48.683Z,9.36
2023-04-02T00:05:26.040Z,9.38
2023-04-02T00:07:54.138Z,9.41
2023-04-02T00:10:39.666Z,9.36
2023-04-02T00:13:22.887Z,9.42
2023-04-02T00:15:54.229Z,9.42
2023-04-02T00:18:22.300Z,9.48
2023-04-02T00:20:54.088Z,9.48
2023-04-02T00:23:22.198Z,9.50
2023-04-02T00:25:49.385Z,9.49
2023-04-02T00:28:20.405Z,9.45
2023-04-02T00:30:51.678Z,9.42
2023-04-02T00:33:22.335Z,9.44
2023-04-02T00:35:51.088Z,9.47
2023-04-02T00:38:22.980Z,9.44
2023-04-02T00:40:51.960Z,9.44
2023-04-02T00:43:20.950Z,9.44
2023-04-02T00:45:51.225Z,9.44
2023-04-02T00:48:41.743Z,9.43
2023-04-02T00:51:47.342Z,9.40
2023-04-02T00:54:20.566Z,9.45
2023-04-02T00:56:50.897Z,9.45
2023-04-02T00:59:30.872Z,9.44
2023-04-02T01:02:19.757Z,9.45
2023-04-02T01:04:56.851Z,9.44
2023-04-02T01:07:41.311Z,9.44
2023-04-02T01:10:36.299Z,9.44
2023-04-02T01:13:13.212Z,9.47
2023-04-02T01:15:43.539Z,9.51
2023-04-02T01:18:26.552Z,9.48
2023-04-02T01:21:18.186Z,9.52
2023-04-02T01:23:53.260Z,9.54
2023-04-02T01:26:39.823Z,9.51
2023-04-02T01:29:24.738Z,9.50
2023-04-02T01:31:53.902Z,9.55
2023-04-02T01:34:25.155Z,9.53
2023-04-02T01:36:56.962Z,9.54
2023-04-02T01:39:53.051Z,9.51
2023-04-02T01:42:35.095Z,9.53
2023-04-02T01:45:13.876Z,9.56
2023-04-02T01:47:43.260Z,9.54
2023-04-02T01:50:19.510Z,9.48
2023-04-02T01:52:48.874Z,9.40
2023-04-02T01:55:21.258Z,9.35
2023-04-02T01:57:51.324Z,9.28
2023-04-02T02:00:19.200Z,9.29
2023-04-02T02:02:49.366Z,9.26
2023-04-02T02:05:20.316Z,9.21
2023-04-02T02:07:48.328Z,9.14
2023-04-02T02:10:33.845Z,9.15
2023-04-02T02:13:01.302Z,9.15
2023-04-02T02:15:29.050Z,9.13
2023-04-02T02:17:59.846Z,9.19
2023-04-02T02:20:29.098Z,9.15
2023-04-02T02:22:57.299Z,9.15
2023-04-02T02:25:27.911Z,9.16
2023-04-02T02:28:18.285Z,9.14
2023-04-02T02:31:17.668Z,9.18
2023-04-02T02:33:53.115Z,9.10
2023-04-02T02:36:36.254Z,9.09
2023-04-02T02:39:17.001Z,9.09
2023-04-02T02:41:53.726Z,9.07
2023-04-02T02:44:33.599Z,9.04
2023-04-02T02:47:26.709Z,9.02
2023-04-02T02:49:59.573Z,9.02
2023-04-02T02:52:36.333Z,9.04
2023-04-02T02:55:10.793Z,8.94
2023-04-02T02:57:45.354Z,8.93
2023-04-02T03:00:13.558Z,8.95
2023-04-02T03:02:41.979Z,8.91
2023-04-02T03:05:10.116Z,8.90
2023-04-02T03:07:38.384Z,8.88
2023-04-02T03:10:19.984Z,8.83
2023-04-02T03:12:54.873Z,8.85
2023-04-02T03:15:41.355Z,8.85
2023-04-02T03:18:22.589Z,8.88
2023-04-02T03:20:53.736Z,8.90
2023-04-02T03:23:24.300Z,8.95
2023-04-02T03:26:12.928Z,8.93
2023-04-02T03:28:44.208Z,8.96
2023-04-02T03:31:25.480Z,8.97
2023-04-02T03:34:17.949Z,8.99
2023-04-02T03:36:59.889Z,9.02
2023-04-02T03:39:37.695Z,9.09
2023-04-02T03:42:20.282Z,9.08
2023-04-02T03:44:49.575Z,9.03
2023-04-02T03:47:49.690Z,9.04
2023-04-02T03:50:25.744Z,9.06
2023-04-02T03:52:54.027Z,9.01
2023-04-02T03:55:28.827Z,8.97
2023-04-02T03:58:16.829Z,8.97
2023-04-02T04:00:47.196Z,8.95
2023-04-02T04:03:18.197Z,8.85
2023-04-02T04:06:10.605Z,8.84
2023-04-02T04:08:44.836Z,8.81
2023-04-02T04:11:17.558Z,8.80
2023-04-02T04:14:01.345Z,8.78
2023-04-02T04:16:33.597Z,8.74
2023-04-02T04:19:10.906Z,8.71
2023-04-02T04:21:38.839Z,8.68
2023-04-02T04:24:15.879Z,8.71
2023-04-02T04:26:53.570Z,8.71
2023-04-02T04:29:40.771Z,8.72
2023-04-02T04:32:16.828Z,8.74
2023-04-02T04:34:51.494Z,8.76
2023-04-02T04:37:25.288Z,8.83
2023-04-02T04:40:06.948Z,8.87
2023-04-02T04:42:36.707Z,8.85
2023-04-02T04:45:16.733Z,8.88
2023-04-02T04:47:52.097Z,8.94
2023-04-02T04:50:33.356Z,8.98
2023-04-02T04:53:08.870Z,9.01
2023-04-02T04:55:39.812Z,9.08
2023-04-02T04:58:31.567Z,9.12
2023-04-02T05:01:13.889Z,9.22
2023-04-02T05:03:48.241Z,9.29
2023-04-02T05:06:25.566Z,9.36
2023-04-02T05:08:56.073Z,9.37
2023-04-02T05:11:31.950Z,9.47
2023-04-02T05:14:04.002Z,9.51
2023-04-02T05:16:39.852Z,9.55
2023-04-02T05:19:36.677Z,9.67
2023-04-02T05:22:27.669Z,9.68
2023-04-02T05:24:57.621Z,9.70
2023-04-02T05:27:46.699Z,9.70
2023-04-02T05:30:52.827Z,9.68
2023-04-02T05:33:29.167Z,9.74
2023-04-02T05:36:05.280Z,9.76
2023-04-02T05:38:44.619Z,9.79
2023-04-02T05:41:32.618Z,9.82
2023-04-02T05:44:06.762Z,9.87
2023-04-02T05:46:37.936Z,9.87
2023-04-02T05:49:10.020Z,9.75
2023-04-02T05:51:43.758Z,9.69
2023-04-02T05:54:23.254Z,9.64
2023-04-02T05:56:56.321Z,9.64
2023-04-02T05:59:29.978Z,9.64
2023-04-02T06:02:07.322Z,9.71
2023-04-02T06:04:43.735Z,9.76
2023-04-02T06:07:15.856Z,9.86
2023-04-02T06:09:52.389Z,9.97
2023-04-02T06:12:35.474Z,10.07
2023-04-02T06:15:06.761Z,10.14
2023-04-02T06:17:45.629Z,10.21
2023-04-02T06:20:16.126Z,10.35
2023-04-02T06:22:51.655Z,10.42
2023-04-02T06:25:32.516Z,10.48
2023-04-02T06:28:02.019Z,10.43
2023-04-02T06:30:35.206Z,10.48
2023-04-02T06:33:04.633Z,10.57
2023-04-02T06:35:36.160Z,10.72
2023-04-02T06:38:06.007Z,10.59
2023-04-02T06:40:46.786Z,10.53
2023-04-02T06:43:26.337Z,10.66
2023-04-02T06:45:57.499Z,10.77
2023-04-02T06:48:26.309Z,10.78
2023-04-02T06:51:02.341Z,10.85
2023-04-02T06:53:34.826Z,10.94
2023-04-02T06:56:31.936Z,10.89
2023-04-02T06:58:59.885Z,10.77
2023-04-02T07:01:30.032Z,10.75
2023-04-02T07:03:57.840Z,10.79
2023-04-02T07:06:26.056Z,10.91
2023-04-02T07:08:53.941Z,11.02
2023-04-02T07:11:22.347Z,11.21
2023-04-02T07:13:50.898Z,11.38
2023-04-02T07:16:25.588Z,11.41
2023-04-02T07:18:55.480Z,11.43
2023-04-02T07:21:23.336Z,11.51
2023-04-02T07:23:50.545Z,11.54
2023-04-02T07:26:20.445Z,11.50
2023-04-02T07:28:47.909Z,11.50
2023-04-02T07:31:27.204Z,11.42
2023-04-02T07:33:58.244Z,11.50
2023-04-02T07:36:26.319Z,11.57
2023-04-02T07:38:53.862Z,11.58
2023-04-02T07:41:22.034Z,11.49
2023-04-02T07:43:49.258Z,11.53
2023-04-02T07:46:18.091Z,11.48
2023-04-02T07:48:47.008Z,11.60
2023-04-02T07:51:19.399Z,11.69
2023-04-02T07:53:50.694Z,11.64
2023-04-02T07:56:19.825Z,11.67
2023-04-02T07:58:47.452Z,11.69
2023-04-02T08:01:26.015Z,11.71
2023-04-02T08:03:54.848Z,11.71
2023-04-02T08:06:23.186Z,11.71
2023-04-02T08:08:50.810Z,11.81
2023-04-02T08:11:18.404Z,11.81
2023-04-02T08:13:45.527Z,11.69
2023-04-02T08:16:12.881Z,11.73
2023-04-02T08:18:40.782Z,11.79
2023-04-02T08:21:09.762Z,11.90
2023-04-02T08:23:37.841Z,11.94
2023-04-02T08:26:06.105Z,11.95
2023-04-02T08:28:33.324Z,12.02
2023-04-02T08:31:00.872Z,11.87
2023-04-02T08:33:28.493Z,11.83
2023-04-02T08:35:56.272Z,11.90
2023-04-02T08:38:23.595Z,11.89
2023-04-02T08:40:59.928Z,12.06
2023-04-02T08:43:39.171Z,12.14
2023-04-02T08:46:27.310Z,12.34
2023-04-02T08:48:58.252Z,12.46
2023-04-02T08:51:36.764Z,12.33
2023-04-02T08:54:13.623Z,12.25
2023-04-02T08:56:47.092Z,12.32
2023-04-02T08:59:33.925Z,12.18
2023-04-02T09:02:04.123Z,12.16
2023-04-02T09:04:31.697Z,12.41
2023-04-02T09:06:59.852Z,12.55
2023-04-02T09:09:27.541Z,12.58
2023-04-02T09:12:00.810Z,12.64
2023-04-02T09:15:03.756Z,12.65
2023-04-02T09:17:36.864Z,12.72
2023-04-02T09:20:17.191Z,12.85
2023-04-02T09:22:51.052Z,12.84
2023-04-02T09:25:27.440Z,12.77
2023-04-02T09:27:56.674Z,12.63
2023-04-02T09:30:33.261Z,12.43
2023-04-02T09:33:03.275Z,12.47
2023-04-02T09:35:32.643Z,12.65
2023-04-02T09:38:31.523Z,12.76
2023-04-02T09:41:06.787Z,12.78
2023-04-02T09:43:36.246Z,12.82
2023-04-02T09:46:09.475Z,12.85
2023-04-02T09:48:40.818Z,13.00
2023-04-02T09:51:23.704Z,12.98
2023-04-02T09:54:15.002Z,12.99
2023-04-02T09:57:01.795Z,12.86
2023-04-02T09:59:29.036Z,12.71
2023-04-02T10:01:56.665Z,12.70
2023-04-02T10:04:38.571Z,12.80
2023-04-02T10:07:06.982Z,12.75
2023-04-02T10:09:36.740Z,12.85
2023-04-02T10:12:10.933Z,12.93
2023-04-02T10:14:40.695Z,13.11
2023-04-02T10:17:15.117Z,13.27
2023-04-02T10:20:06.319Z,13.31
2023-04-02T10:22:33.652Z,13.45
2023-04-02T10:25:01.520Z,13.52
2023-04-02T10:27:46.350Z,13.62
2023-04-02T10:30:42.294Z,13.86
2023-04-02T10:33:21.481Z,13.98
2023-04-02T10:36:12.121Z,13.93
2023-04-02T10:38:53.303Z,13.74
2023-04-02T10:41:29.852Z,13.76
2023-04-02T10:44:18.989Z,13.74
2023-04-02T10:47:06.595Z,13.77
2023-04-02T10:49:54.286Z,13.85
2023-04-02T10:52:35.187Z,14.04
2023-04-02T10:55:06.747Z,14.33
2023-04-02T10:57:34.374Z,14.69
2023-04-02T11:00:11.167Z,14.78
2023-04-02T11:02:47.635Z,14.84
2023-04-02T11:05:23.796Z,14.84
2023-04-02T11:07:56.994Z,14.93
2023-04-02T11:10:25.584Z,14.90
2023-04-02T11:12:57.907Z,14.70
2023-04-02T11:15:25.961Z,14.78
2023-04-02T11:17:53.548Z,14.96
2023-04-02T11:20:48.846Z,15.00
2023-04-02T11:23:20.406Z,14.85
2023-04-02T11:25:48.004Z,15.00
2023-04-02T11:28:29.911Z,15.14
2023-04-02T11:30:57.609Z,15.12
2023-04-02T11:33:37.685Z,15.09
2023-04-02T11:36:44.422Z,15.13
2023-04-02T11:39:17.271Z,15.09
2023-04-02T11:42:05.433Z,15.06
2023-04-02T11:44:32.909Z,14.99
2023-04-02T11:47:23.332Z,15.01
2023-04-02T11:50:05.986Z,14.99
2023-04-02T11:52:59.779Z,15.19
2023-04-02T11:55:30.746Z,15.13
2023-04-02T11:58:20.621Z,15.09
2023-04-02T12:01:09.187Z,15.08
2023-04-02T12:04:11.042Z,15.07
2023-04-02T12:06:47.606Z,14.80
2023-04-02T12:09:27.249Z,14.86
2023-04-02T12:12:00.320Z,14.89
2023-04-02T12:14:48.111Z,15.02
2023-04-02T12:17:18.738Z,15.16
2023-04-02T12:19:49.013Z,15.20
2023-04-02T12:22:20.945Z,15.32
2023-04-02T12:24:49.515Z,15.20
2023-04-02T12:27:27.575Z,15.18
2023-04-02T12:29:57.194Z,15.16
2023-04-02T12:32:27.842Z,15.12
2023-04-02T12:34:58.061Z,15.23
2023-04-02T12:37:27.660Z,15.27
2023-04-02T12:39:59.409Z,15.28
2023-04-02T12:42:35.219Z,15.27
2023-04-02T12:45:05.122Z,15.36
2023-04-02T12:47:33.056Z,15.42
2023-04-02T12:50:02.069Z,15.51
2023-04-02T12:52:29.630Z,15.42
2023-04-02T12:55:00.179Z,15.63
2023-04-02T12:57:33.673Z,15.62
2023-04-02T13:00:22.467Z,15.70
2023-04-02T13:03:06.029Z,15.75
2023-04-02T13:05:36.523Z,15.86
2023-04-02T13:08:05.636Z,15.72
2023-04-02T13:10:33.181Z,15.82
2023-04-02T13:13:02.519Z,15.94
2023-04-02T13:15:34.523Z,16.01
2023-04-02T13:18:16.377Z,15.91
2023-04-02T13:20:43.932Z,15.44
2023-04-02T13:23:29.659Z,15.34
2023-04-02T13:26:02.611Z,15.09
2023-04-02T13:28:30.174Z,15.06
2023-04-02T13:30:57.405Z,14.96
2023-04-02T13:33:24.594Z,14.78
2023-04-02T13:35:52.150Z,14.72
2023-04-02T13:38:19.354Z,14.64
2023-04-02T13:40:46.671Z,14.41
2023-04-02T13:43:18.980Z,14.48
2023-04-02T13:45:49.796Z,14.50
2023-04-02T13:48:18.348Z,14.57
2023-04-02T13:50:46.682Z,14.89
2023-04-02T13:53:25.173Z,15.06
2023-04-02T13:55:53.621Z,15.20
2023-04-02T13:58:20.979Z,15.14
2023-04-02T14:00:48.340Z,15.02
2023-04-02T14:03:23.065Z,14.87
2023-04-02T14:06:14.049Z,14.59
2023-04-02T14:09:09.684Z,14.34
2023-04-02T14:12:01.267Z,14.24
2023-04-02T14:14:47.190Z,14.26
2023-04-02T14:17:47.508Z,14.21
2023-04-02T14:20:41.138Z,14.16
2023-04-02T14:23:33.724Z,14.33
2023-04-02T14:26:07.644Z,14.51
2023-04-02T14:28:40.234Z,14.79
2023-04-02T14:31:16.936Z,14.98
2023-04-02T14:33:57.596Z,15.12
2023-04-02T14:36:38.209Z,15.24
2023-04-02T14:39:11.802Z,15.21
2023-04-02T14:42:02.200Z,15.41
2023-04-02T14:44:34.386Z,15.64
2023-04-02T14:47:54.307Z,15.77
2023-04-02T14:50:28.049Z,15.69
2023-04-02T14:52:58.561Z,15.27
2023-04-02T14:55:38.505Z,15.19
2023-04-02T14:58:11.339Z,15.16
2023-04-02T15:00:44.441Z,15.06
2023-04-02T15:03:43.260Z,14.93
2023-04-02T15:06:13.110Z,14.40
2023-04-02T15:09:06.234Z,14.28
2023-04-02T15:11:38.823Z,14.19
2023-04-02T15:14:14.363Z,13.96
2023-04-02T15:16:41.817Z,13.96
2023-04-02T15:19:14.940Z,13.87
2023-04-02T15:21:55.609Z,13.79
2023-04-02T15:25:01.871Z,13.82
2023-04-02T15:27:34.029Z,13.99
2023-04-02T15:30:07.824Z,13.88
2023-04-02T15:32:35.639Z,13.90
2023-04-02T15:35:21.687Z,13.91
2023-04-02T15:38:16.401Z,13.94
2023-04-02T15:41:14.653Z,13.91
2023-04-02T15:43:56.816Z,13.79
2023-04-02T15:46:42.514Z,13.72
2023-04-02T15:49:33.526Z,13.24
2023-04-02T15:52:06.900Z,12.36
2023-04-02T15:54:36.650Z,12.11
2023-04-02T15:57:42.743Z,11.97
2023-04-02T16:00:09.788Z,12.15
2023-04-02T16:03:12.787Z,12.40
2023-04-02T16:05:44.345Z,12.33
2023-04-02T16:08:11.602Z,12.30
2023-04-02T16:10:42.321Z,12.24
2023-04-02T16:13:28.546Z,12.36
2023-04-02T16:16:07.779Z,12.58
2023-04-02T16:18:51.230Z,12.42
2023-04-02T16:21:24.812Z,12.42
2023-04-02T16:23:53.057Z,12.40
2023-04-02T16:26:29.502Z,12.47
2023-04-02T16:28:59.768Z,12.70
2023-04-02T16:31:37.061Z,12.79
2023-04-02T16:34:39.923Z,13.00
2023-04-02T16:37:19.220Z,13.27
2023-04-02T16:39:51.919Z,13.38
2023-04-02T16:42:47.779Z,13.42
2023-04-02T16:45:19.285Z,13.44
2023-04-02T16:48:04.962Z,13.38
2023-04-02T16:50:41.724Z,13.04
2023-04-02T16:53:36.071Z,12.99
2023-04-02T16:56:09.775Z,13.07
2023-04-02T16:58:40.101Z,13.06
2023-04-02T17:01:19.765Z,12.92
2023-04-02T17:03:56.849Z,12.80
2023-04-02T17:06:27.449Z,12.75
2023-04-02T17:09:10.995Z,12.62
2023-04-02T17:12:19.369Z,12.57
2023-04-02T17:15:00.112Z,12.48
2023-04-02T17:17:27.661Z,12.44
2023-04-02T17:20:00.619Z,12.36
2023-04-02T17:22:31.340Z,12.24
2023-04-02T17:25:00.809Z,12.03
2023-04-02T17:27:37.829Z,12.02
2023-04-02T17:30:12.072Z,11.96
2023-04-02T17:32:39.570Z,11.87
2023-04-02T17:35:23.096Z,11.80
2023-04-02T17:38:16.429Z,11.73
2023-04-02T17:41:03.636Z,11.62
2023-04-02T17:43:35.622Z,11.49
2023-04-02T17:46:26.196Z,11.48
2023-04-02T17:49:34.523Z,11.42
2023-04-02T17:52:36.797Z,11.41
2023-04-02T17:55:13.412Z,11.28
2023-04-02T17:57:47.496Z,11.19
2023-04-02T18:00:39.668Z,11.05
2023-04-02T18:03:37.520Z,10.93
2023-04-02T18:06:29.992Z,10.70
2023-04-02T18:09:16.065Z,10.52
2023-04-02T18:12:01.765Z,10.33
2023-04-02T18:14:51.032Z,10.16
2023-04-02T18:17:55.679Z,10.13
2023-04-02T18:20:42.402Z,10.13
2023-04-02T18:23:40.646Z,9.99
2023-04-02T18:26:16.792Z,9.82
2023-04-02T18:28:58.108Z,9.71
2023-04-02T18:32:00.040Z,9.63
2023-04-02T18:35:11.616Z,9.48
2023-04-02T18:37:47.861Z,9.25
2023-04-02T18:40:31.795Z,9.04
2023-04-02T18:43:31.248Z,8.87
2023-04-02T18:46:42.042Z,8.87
2023-04-02T18:49:12.208Z,8.80
2023-04-02T18:51:40.319Z,8.68
2023-04-02T18:54:14.824Z,8.60
2023-04-02T18:56:42.854Z,8.58
2023-04-02T18:59:41.811Z,8.45
2023-04-02T19:02:29.675Z,8.40
2023-04-02T19:05:22.928Z,8.39
2023-04-02T19:07:55.495Z,8.34
2023-04-02T19:10:34.588Z,8.32
2023-04-02T19:13:02.254Z,8.29
2023-04-02T19:16:19.838Z,8.10
2023-04-02T19:19:14.916Z,7.94
2023-04-02T19:21:51.502Z,7.80
2023-04-02T19:24:46.582Z,7.78
2023-04-02T19:27:28.806Z,7.72
2023-04-02T19:30:18.010Z,7.74
2023-04-02T19:32:55.520Z,7.75
2023-04-02T19:35:32.374Z,7.61
2023-04-02T19:38:23.418Z,7.67
2023-04-02T19:41:17.449Z,7.70
2023-04-02T19:43:44.806Z,7.71
2023-04-02T19:46:12.462Z,7.68
2023-04-02T19:48:55.609Z,7.56
2023-04-02T19:51:23.122Z,7.59
2023-04-02T19:53:50.277Z,7.55
2023-04-02T19:56:17.440Z,7.54
2023-04-02T19:58:44.856Z,7.46
2023-04-02T20:01:12.111Z,7.43
2023-04-02T20:03:39.652Z,7.39
2023-04-02T20:06:06.916Z,7.32
2023-04-02T20:08:36.158Z,7.33
2023-04-02T20:11:03.693Z,7.16
2023-04-02T20:13:31.245Z,7.14
2023-04-02T20:16:02.738Z,7.10
2023-04-02T20:18:31.400Z,7.04
2023-04-02T20:20:58.600Z,7.07
2023-04-02T20:23:25.895Z,7.02
2023-04-02T20:25:56.823Z,7.02
2023-04-02T20:28:25.600Z,7.09
2023-04-02T20:30:52.872Z,6.95
2023-04-02T20:33:22.769Z,6.96
2023-04-02T20:35:51.364Z,6.90
2023-04-02T20:38:19.039Z,6.89
2023-04-02T20:40:52.765Z,7.06
2023-04-02T20:43:20.145Z,7.00
2023-04-02T20:45:58.065Z,6.99
2023-04-02T20:48:27.448Z,6.98
2023-04-02T20:50:54.965Z,7.04
2023-04-02T20:53:22.227Z,7.06
2023-04-02T20:55:49.592Z,6.90
2023-04-02T20:58:18.268Z,6.90
2023-04-02T21:00:45.817Z,6.78
2023-04-02T21:03:13.002Z,6.77
2023-04-02T21:05:44.880Z,6.82
2023-04-02T21:08:12.557Z,6.86
2023-04-02T21:10:40.751Z,6.90
2023-04-02T21:13:08.231Z,6.84
2023-04-02T21:15:35.794Z,6.83
2023-04-02T21:18:03.281Z,6.82
2023-04-02T21:20:31.976Z,6.76
2023-04-02T21:22:59.153Z,6.72
2023-04-02T21:25:26.375Z,6.69
2023-04-02T21:27:54.154Z,6.71
2023-04-02T21:30:21.415Z,6.74
2023-04-02T21:32:48.774Z,6.81
2023-04-02T21:35:16.321Z,6.81
2023-04-02T21:37:44.278Z,6.92
2023-04-02T21:40:12.612Z,6.93
2023-04-02T21:42:40.082Z,6.92
2023-04-02T21:45:07.611Z,7.02
2023-04-02T21:47:34.874Z,6.94
2023-04-02T21:50:02.492Z,6.95
2023-04-02T21:52:29.699Z,7.05
2023-04-02T21:54:56.868Z,7.02
2023-04-02T21:57:24.394Z,7.02
2023-04-02T21:59:51.721Z,6.88
2023-04-02T22:02:18.928Z,6.86
2023-04-02T22:04:46.445Z,6.79
2023-04-02T22:07:13.527Z,6.67
2023-04-02T22:09:40.690Z,6.76
2023-04-02T22:12:08.396Z,6.85
2023-04-02T22:14:35.540Z,6.81
2023-04-02T22:17:03.550Z,6.66
2023-04-02T22:19:32.925Z,6.77
2023-04-02T22:22:00.195Z,6.94
2023-04-02T22:24:27.344Z,6.92
2023-04-02T22:26:54.785Z,6.71
2023-04-02T22:29:22.073Z,6.80
2023-04-02T22:31:49.236Z,6.77
2023-04-02T22:34:16.628Z,6.52
2023-04-02T22:36:43.752Z,6.52
2023-04-02T22:39:12.184Z,6.52
2023-04-02T22:41:39.808Z,6.49
2023-04-02T22:44:07.005Z,6.64
2023-04-02T22:46:34.798Z,6.72
2023-04-02T22:49:02.517Z,6.82
2023-04-02T22:51:29.717Z,6.79
2023-04-02T22:53:57.108Z,6.84
2023-04-02T22:56:28.582Z,6.72
2023-04-02T22:58:55.984Z,6.68
2023-04-02T23:01:26.468Z,6.72
2023-04-02T23:03:55.270Z,6.73
2023-04-02T23:06:23.204Z,6.74
2023-04-02T23:08:50.916Z,6.79
2023-04-02T23:11:24.238Z,6.73
2023-04-02T23:13:54.488Z,6.65
2023-04-02T23:16:22.801Z,6.59
2023-04-02T23:18:50.530Z,6.42
2023-04-02T23:21:18.990Z,6.33
2023-04-02T23:23:47.368Z,6.32
2023-04-02T23:26:17.542Z,6.40
2023-04-02T23:28:44.773Z,6.31
2023-04-02T23:31:14.898Z,6.37
2023-04-02T23:33:42.509Z,6.38
2023-04-02T23:36:10.519Z,6.39
2023-04-02T23:38:38.153Z,6.52
2023-04-02T23:41:05.417Z,6.51
2023-04-02T23:43:32.650Z,6.45
2023-04-02T23:46:00.216Z,6.39
2023-04-02T23:48:27.454Z,6.30
2023-04-02T23:50:54.699Z,6.16
2023-04-02T23:53:22.250Z,6.17
2023-04-02T23:55:49.822Z,6.26
2023-04-02T23:58:17.050Z,6.26
